Time;durP1;ratioP1;P1;durP2;ratioP2;P2;SDS_P1;SDS_P2;PMS_P1;PMS_P2;Temp;Humidity;BMP_temperature;BMP_pressure;BME280_temperature;BME280_humidity;BME280_pressure;Samples;Min_cycle;Max_cycle;Signal;HPM_P1;HPM_P2
2023/10/20 00:01:43;;;;;;;23.27;15.63;;;;;;;-145.68;100.00;72336.66;10468366;28;20761;-74
2023/10/20 00:06:44;;;;;;;20.70;15.75;;;;;;;-145.68;100.00;72366.63;10470212;28;20199;-74
2023/10/20 00:11:45;;;;;;;24.05;17.38;;;;;;;-145.68;100.00;72376.63;10469370;28;20200;-74
2023/10/20 00:16:45;;;;;;;25.75;17.17;;;;;;;-145.68;100.00;72388.63;10470023;28;20675;-74
2023/10/20 00:21:45;;;;;;;26.38;19.50;;;;;;;-145.68;100.00;72406.59;10468492;28;20256;-74
2023/10/20 00:26:46;;;;;;;25.85;18.77;;;;;;;-145.68;100.00;72408.59;10466757;28;20184;-74
2023/10/20 00:31:47;;;;;;;25.63;17.65;;;;;;;-145.68;100.00;72374.63;10468769;28;20231;-74
2023/10/20 00:36:47;;;;;;;27.60;17.70;;;;;;;-145.68;100.00;72348.66;10467695;28;20224;-74
2023/10/20 00:41:48;;;;;;;22.40;17.15;;;;;;;-145.68;100.00;72328.69;10468034;28;20631;-74
2023/10/20 00:46:48;;;;;;;22.98;17.45;;;;;;;-145.68;100.00;72396.63;10466974;28;20202;-74
2023/10/20 00:51:49;;;;;;;24.93;18.23;;;;;;;-145.68;100.00;72406.59;10466183;28;20208;-74
2023/10/20 00:56:49;;;;;;;27.43;18.63;;;;;;;-145.68;100.00;72394.63;10466585;28;20322;-74
2023/10/20 01:01:50;;;;;;;22.98;16.05;;;;;;;-145.68;100.00;72368.63;10465128;28;20250;-74
2023/10/20 01:06:51;;;;;;;28.17;19.77;;;;;;;-145.68;100.00;72388.63;10465804;28;20200;-74
2023/10/20 01:11:51;;;;;;;29.63;19.35;;;;;;;-145.68;100.00;72376.63;10465720;28;20249;-74
2023/10/20 01:16:52;;;;;;;25.02;17.65;;;;;;;-145.68;100.00;72340.66;10467766;28;20223;-74
2023/10/20 01:21:52;;;;;;;27.43;18.30;;;;;;;-145.68;100.00;72360.66;10465685;28;20932;-74
2023/10/20 01:26:53;;;;;;;24.17;17.20;;;;;;;-145.68;100.00;72388.63;10467166;28;20198;-74
2023/10/20 01:31:53;;;;;;;25.00;16.33;;;;;;;-145.68;100.00;72398.63;10465241;28;20541;-74
2023/10/20 01:36:53;;;;;;;24.33;16.77;;;;;;;-145.68;100.00;72416.59;10464017;28;20702;-74
2023/10/20 01:41:54;;;;;;;28.23;18.00;;;;;;;-145.68;100.00;72420.59;10448116;28;20199;-74
2023/10/20 01:46:54;;;;;;;29.70;20.30;;;;;;;-145.68;100.00;72422.59;10465576;28;20260;-74
2023/10/20 01:51:55;;;;;;;33.78;21.00;;;;;;;-145.68;100.00;72428.59;10462259;28;20211;-74
2023/10/20 01:56:55;;;;;;;31.27;20.38;;;;;;;-145.68;100.00;72416.59;10447632;28;20223;-74
2023/10/20 02:01:56;;;;;;;31.40;21.13;;;;;;;-145.68;100.00;72418.59;10463939;28;20195;-74
2023/10/20 02:06:56;;;;;;;30.43;20.10;;;;;;;-145.68;100.00;72430.59;10464024;28;20257;-74
2023/10/20 02:11:58;;;;;;;26.73;19.30;;;;;;;-145.68;100.00;72442.56;10464950;28;20754;-74
2023/10/20 02:16:58;;;;;;;28.53;20.43;;;;;;;-145.68;100.00;72430.59;10446143;28;20223;-73
2023/10/20 02:21:59;;;;;;;34.70;21.90;;;;;;;-145.68;100.00;72418.59;10462523;28;20293;-73
2023/10/20 02:27:00;;;;;;;32.43;19.80;;;;;;;-145.68;100.00;72404.59;10464573;28;20184;-73
2023/10/20 02:32:00;;;;;;;30.40;18.50;;;;;;;-145.68;100.00;72376.63;10462098;28;20192;-73
2023/10/20 02:37:00;;;;;;;25.37;18.23;;;;;;;-145.68;100.00;72364.63;10463854;28;20273;-74
2023/10/20 02:42:01;;;;;;;29.80;18.10;;;;;;;-145.68;100.00;72356.66;10462133;28;20224;-73
2023/10/20 02:47:03;;;;;;;26.57;17.60;;;;;;;-145.68;100.00;72340.66;10462699;28;20242;-73
2023/10/20 02:52:03;;;;;;;22.10;15.30;;;;;;;-145.68;100.00;72324.69;10461296;28;20248;-73
2023/10/20 02:57:05;;;;;;;25.63;17.63;;;;;;;-145.68;100.00;72336.66;10480250;28;20214;-74
2023/10/20 03:02:06;;;;;;;25.77;17.63;;;;;;;-145.68;100.00;72318.69;10485958;28;20197;-74
2023/10/20 03:07:08;;;;;;;22.73;15.70;;;;;;;-145.68;100.00;72296.69;10484759;28;20666;-74
2023/10/20 03:12:09;;;;;;;21.63;14.77;;;;;;;-145.68;100.00;72290.72;10485552;28;20671;-74
2023/10/20 03:17:11;;;;;;;21.97;13.97;;;;;;;-145.68;100.00;72270.72;10483446;28;20219;-73
2023/10/20 03:22:12;;;;;;;18.80;13.77;;;;;;;-145.68;100.00;72276.72;10483324;28;20729;-74
2023/10/20 03:27:13;;;;;;;17.70;14.10;;;;;;;-145.68;100.00;72274.72;10483877;28;20474;-74
2023/10/20 03:32:14;;;;;;;18.47;13.67;;;;;;;-145.68;100.00;72262.72;10483703;28;20652;-73
2023/10/20 03:37:14;;;;;;;18.57;13.27;;;;;;;-145.68;100.00;72250.75;10483158;28;20215;-73
2023/10/20 03:42:15;;;;;;;18.60;12.07;;;;;;;-145.68;100.00;72246.75;10484081;28;20183;-74
2023/10/20 03:47:17;;;;;;;18.50;12.93;;;;;;;-145.68;100.00;72234.75;10483786;28;20190;-74
2023/10/20 03:52:18;;;;;;;13.23;10.73;;;;;;;-145.68;100.00;72222.78;10483705;28;20206;-74
2023/10/20 03:57:19;;;;;;;13.32;10.57;;;;;;;-145.68;100.00;72228.75;10482510;28;20623;-74
2023/10/20 04:02:20;;;;;;;15.97;11.80;;;;;;;-145.68;100.00;72244.75;10481932;28;20192;-74
2023/10/20 04:07:20;;;;;;;15.20;10.90;;;;;;;-145.68;100.00;72248.75;10482593;28;20217;-74
2023/10/20 04:12:20;;;;;;;21.50;14.13;;;;;;;-145.68;100.00;72264.72;10481475;28;20695;-74
2023/10/20 04:17:21;;;;;;;22.13;14.90;;;;;;;-145.68;100.00;72266.72;10483029;28;20219;-74
2023/10/20 04:22:23;;;;;;;22.47;16.03;;;;;;;-145.68;100.00;72248.75;10479022;28;20285;-75
2023/10/20 04:27:40;;;;;;;20.63;15.02;;;;;;;-145.68;100.00;72266.72;10481169;28;20187;-74
2023/10/20 04:43:37;;;;;;;27.90;19.00;;;;;;;-145.68;100.00;72258.75;10481663;28;20529;-75
2023/10/20 04:54:07;;;;;;;42.20;26.13;;;;;;;-145.68;100.00;72238.75;10460046;28;20313;-75
2023/10/20 04:59:10;;;;;;;35.33;22.70;;;;;;;-145.68;100.00;72244.75;10456014;28;20670;-74
2023/10/20 05:04:36;;;;;;;41.17;27.20;;;;;;;-145.68;100.00;72252.75;10454117;28;20752;-75
2023/10/20 05:09:44;;;;;;;38.10;25.10;;;;;;;-145.68;100.00;72252.75;10480855;28;20286;-75
2023/10/20 05:14:46;;;;;;;63.33;37.03;;;;;;;-145.68;100.00;72248.75;10476725;28;20226;-75
2023/10/20 05:19:49;;;;;;;57.13;33.97;;;;;;;-145.68;100.00;72252.75;10464939;28;20212;-79
2023/10/20 05:24:51;;;;;;;50.57;31.47;;;;;;;-145.68;100.00;72234.75;10449838;28;20251;-77
2023/10/20 05:29:52;;;;;;;62.37;38.40;;;;;;;-145.68;100.00;72244.75;10465773;28;20194;-74
2023/10/20 05:34:53;;;;;;;61.43;37.50;;;;;;;-145.68;100.00;72216.78;10458294;28;20216;-74
2023/10/20 05:39:54;;;;;;;51.97;34.10;;;;;;;-145.68;100.00;72206.78;10463551;28;20233;-73
2023/10/20 05:45:09;;;;;;;50.90;32.00;;;;;;;-145.68;100.00;72162.81;10439424;28;20215;-78
2023/10/20 05:50:10;;;;;;;46.90;32.23;;;;;;;-145.68;100.00;72108.88;10465713;28;20211;-75
2023/10/20 05:55:10;;;;;;;40.10;28.93;;;;;;;-145.68;100.00;72058.94;10469683;28;20211;-76
2023/10/20 06:00:13;;;;;;;38.80;27.55;;;;;;;-145.68;100.00;72008.97;10475126;28;20198;-75
2023/10/20 06:05:14;;;;;;;37.83;27.35;;;;;;;-145.68;100.00;71977.00;10468683;28;20242;-75
2023/10/20 06:10:22;;;;;;;35.60;25.23;;;;;;;-145.68;100.00;71961.03;10475071;28;20191;-75
2023/10/20 06:15:22;;;;;;;40.22;26.70;;;;;;;-145.68;100.00;71939.03;10461802;28;20215;-75
2023/10/20 06:20:22;;;;;;;36.97;25.10;;;;;;;-145.68;100.00;71917.06;10477852;28;20183;-75
2023/10/20 06:25:23;;;;;;;35.90;25.67;;;;;;;-145.68;100.00;71891.09;10479004;28;20702;-75
2023/10/20 06:30:23;;;;;;;37.60;26.67;;;;;;;-145.68;100.00;71881.09;10476553;28;20277;-76
2023/10/20 06:35:32;;;;;;;41.00;26.73;;;;;;;-145.68;100.00;71865.13;10463808;28;20308;-73
2023/10/20 06:40:33;;;;;;;39.38;28.00;;;;;;;-145.68;100.00;71847.13;10474996;28;20191;-73
2023/10/20 06:45:34;;;;;;;39.42;27.60;;;;;;;-145.68;100.00;71825.16;10468248;28;20187;-75
2023/10/20 06:50:34;;;;;;;42.38;27.45;;;;;;;-145.68;100.00;71821.16;10483306;28;20211;-75
2023/10/20 06:55:34;;;;;;;40.00;25.67;;;;;;;-145.68;100.00;71809.16;10483117;28;20300;-74
2023/10/20 07:00:38;;;;;;;32.55;23.48;;;;;;;-145.68;100.00;71799.19;10471927;28;20673;-75
2023/10/20 07:05:39;;;;;;;31.05;21.83;;;;;;;-145.68;100.00;71779.19;10471504;28;20188;-74
2023/10/20 07:10:40;;;;;;;31.23;19.08;;;;;;;-145.68;100.00;71773.22;10481772;28;20228;-74
2023/10/20 07:15:40;;;;;;;23.95;17.25;;;;;;;-145.68;100.00;71749.22;10475340;28;20223;-74
2023/10/20 07:20:41;;;;;;;22.55;17.05;;;;;;;-145.68;100.00;71753.22;10479022;28;20242;-75
2023/10/20 07:25:41;;;;;;;18.55;10.30;;;;;;;-145.68;100.00;71753.22;10483854;28;20201;-74
2023/10/20 07:30:42;;;;;;;24.17;17.65;;;;;;;-145.68;100.00;71753.22;10474272;28;20187;-75
2023/10/20 07:35:42;;;;;;;18.10;11.63;;;;;;;-145.68;100.00;71761.22;10472643;28;20318;-73
2023/10/20 07:40:59;;;;;;;16.42;10.90;;;;;;;-145.68;100.00;71769.22;10468722;28;20256;-72
2023/10/20 07:46:00;;;;;;;21.55;15.00;;;;;;;-145.68;100.00;71773.22;10469538;28;20206;-73
2023/10/20 07:51:04;;;;;;;24.45;15.20;;;;;;;-145.68;100.00;71767.22;10464713;28;20584;-75
2023/10/20 07:56:05;;;;;;;21.90;13.60;;;;;;;-145.68;100.00;71741.25;10461983;28;20620;-73
2023/10/20 08:01:06;;;;;;;24.35;15.40;;;;;;;-145.68;100.00;71739.25;10469858;28;20188;-73
2023/10/20 08:06:07;;;;;;;24.05;15.00;;;;;;;-145.68;100.00;71749.22;10483676;28;20179;-74
2023/10/20 08:11:07;;;;;;;23.35;16.40;;;;;;;-145.68;100.00;71727.25;10479455;28;20672;-74
2023/10/20 08:16:08;;;;;;;25.95;16.67;;;;;;;-145.68;100.00;71727.25;10485485;28;20215;-73
2023/10/20 08:21:09;;;;;;;24.05;16.25;;;;;;;-145.68;100.00;71683.31;10478922;28;20227;-73
2023/10/20 08:26:16;;;;;;;20.30;14.18;;;;;;;-145.68;100.00;71655.34;10486030;28;20179;-74
2023/10/20 08:31:17;;;;;;;19.58;14.18;;;;;;;-145.68;100.00;71627.38;10490147;28;20187;-73
2023/10/20 08:36:22;;;;;;;21.30;15.52;;;;;;;-145.68;100.00;71619.38;10488983;28;20223;-73
2023/10/20 08:41:22;;;;;;;24.25;16.35;;;;;;;-145.68;100.00;71633.34;10478712;28;20698;-74
2023/10/20 08:46:23;;;;;;;24.92;17.20;;;;;;;-145.68;100.00;71637.34;10482582;28;20245;-74
2023/10/20 08:51:24;;;;;;;23.98;17.48;;;;;;;-145.68;100.00;71653.34;10477020;28;20200;-73
2023/10/20 08:56:24;;;;;;;21.85;15.50;;;;;;;-145.68;100.00;71649.34;10485757;28;20216;-74
2023/10/20 09:01:24;;;;;;;20.58;14.55;;;;;;;-145.68;100.00;71643.34;10483244;28;20254;-74
2023/10/20 09:06:26;;;;;;;22.67;16.02;;;;;;;-145.68;100.00;71675.31;10488776;28;20241;-74
2023/10/20 09:11:30;;;;;;;20.38;14.23;;;;;;;-145.68;100.00;71649.34;10488447;28;20201;-74
2023/10/20 09:16:33;;;;;;;24.35;14.10;;;;;;;-145.68;100.00;71625.38;10481868;28;20241;-74
2023/10/20 09:21:34;;;;;;;22.38;13.95;;;;;;;-145.68;100.00;71623.38;10483988;28;20219;-74
2023/10/20 09:26:38;;;;;;;20.45;13.70;;;;;;;-145.68;100.00;71605.38;10472000;28;20194;-74
2023/10/20 09:31:39;;;;;;;20.83;14.00;;;;;;;-145.68;100.00;71591.41;10477345;28;20187;-74
2023/10/20 09:36:44;;;;;;;17.92;12.32;;;;;;;-145.68;100.00;71601.41;10483490;28;20219;-74
2023/10/20 09:41:48;;;;;;;18.02;12.23;;;;;;;-145.68;100.00;71605.38;10487512;28;20279;-74
2023/10/20 09:46:55;;;;;;;19.17;13.25;;;;;;;-145.68;100.00;71597.41;10472050;28;20678;-74
2023/10/20 09:51:59;;;;;;;18.35;13.23;;;;;;;-145.68;100.00;71585.41;10478259;28;20276;-75
2023/10/20 09:57:00;;;;;;;18.35;12.98;;;;;;;-145.68;100.00;71585.41;10464355;28;20242;-74
2023/10/20 10:02:01;;;;;;;18.52;13.13;;;;;;;-145.68;100.00;71557.44;10469413;28;20541;-73
2023/10/20 10:07:05;;;;;;;20.35;13.73;;;;;;;-145.68;100.00;71547.44;10473502;28;20191;-74
2023/10/20 10:12:10;;;;;;;18.17;13.00;;;;;;;-145.68;100.00;71547.44;10453646;28;20703;-75
2023/10/20 10:17:11;;;;;;;16.00;12.27;;;;;;;-145.68;100.00;71551.44;10471414;28;20285;-75
2023/10/20 10:22:15;;;;;;;18.73;13.45;;;;;;;-145.68;100.00;71585.41;10474105;28;20227;-75
2023/10/20 10:27:16;;;;;;;16.48;12.18;;;;;;;-145.68;100.00;71575.41;10455149;28;20337;-75
2023/10/20 10:32:18;;;;;;;19.60;12.98;;;;;;;-145.68;100.00;71589.41;10473790;28;20548;-75
2023/10/20 10:37:33;;;;;;;14.48;11.25;;;;;;;-145.68;100.00;71563.44;10469684;28;20223;-75
2023/10/20 10:42:43;;;;;;;15.18;10.63;;;;;;;-145.68;100.00;71563.44;10482649;28;20199;-76
2023/10/20 10:47:44;;;;;;;12.25;9.95;;;;;;;-145.68;100.00;71569.44;10469455;28;20207;-76
2023/10/20 10:52:44;;;;;;;16.42;12.40;;;;;;;-145.68;100.00;71573.41;10489754;28;20184;-75
2023/10/20 10:57:45;;;;;;;15.25;11.30;;;;;;;-145.68;100.00;71565.44;10477165;28;20231;-75
2023/10/20 11:02:46;;;;;;;17.52;13.02;;;;;;;-145.68;100.00;71557.44;10465747;28;20308;-75
2023/10/20 11:08:07;;;;;;;14.63;11.32;;;;;;;-145.68;100.00;71577.41;10465171;28;20824;-75
2023/10/20 11:13:13;;;;;;;20.75;15.30;;;;;;;-145.68;100.00;71551.44;10470726;28;20211;-75
2023/10/20 11:18:16;;;;;;;21.60;16.42;;;;;;;-145.68;100.00;71583.41;10479008;28;20251;-76
2023/10/20 11:23:29;;;;;;;23.60;17.33;;;;;;;-145.68;100.00;71585.41;10475549;28;20231;-75
2023/10/20 11:28:29;;;;;;;24.00;18.65;;;;;;;-145.68;100.00;71579.41;10491712;28;20219;-75
2023/10/20 11:33:30;;;;;;;30.98;19.50;;;;;;;-145.68;100.00;71587.41;10487982;28;20609;-75
2023/10/20 11:38:32;;;;;;;23.85;18.38;;;;;;;-145.68;100.00;71601.41;10491862;28;20203;-76
2023/10/20 11:43:32;;;;;;;30.38;20.98;;;;;;;-145.68;100.00;71667.31;10492375;28;20194;-75
2023/10/20 11:48:32;;;;;;;31.25;21.00;;;;;;;-145.68;100.00;71683.31;10491629;28;20207;-75
2023/10/20 11:53:33;;;;;;;30.15;22.10;;;;;;;-145.68;100.00;71713.28;10481868;28;20230;-76
2023/10/20 11:58:33;;;;;;;44.50;23.60;;;;;;;-145.68;100.00;71777.22;10481996;28;20210;-75
2023/10/20 12:03:33;;;;;;;40.17;25.65;;;;;;;-145.68;100.00;71811.16;10484698;28;20191;-75
2023/10/20 12:08:34;;;;;;;41.20;25.10;;;;;;;-145.68;100.00;71825.16;10490871;28;20629;-76
2023/10/20 12:13:37;;;;;;;36.13;25.45;;;;;;;-145.68;100.00;71829.16;10480312;28;20183;-75
2023/10/20 12:18:38;;;;;;;71.63;27.58;;;;;;;-145.68;100.00;71853.13;10481349;28;20231;-75
2023/10/20 12:23:38;;;;;;;49.10;27.03;;;;;;;-145.68;100.00;71881.09;10477558;28;20234;-75
2023/10/20 12:28:38;;;;;;;49.70;27.98;;;;;;;-145.68;100.00;71897.09;10479162;28;20191;-75
2023/10/20 12:33:39;;;;;;;54.60;28.90;;;;;;;-145.68;100.00;71901.09;10479568;28;20195;-75
2023/10/20 12:38:40;;;;;;;51.95;31.95;;;;;;;-145.68;100.00;71901.09;10470885;28;20215;-75
2023/10/20 12:43:41;;;;;;;55.08;30.60;;;;;;;-145.68;100.00;71889.09;10479664;28;20681;-74
2023/10/20 12:48:43;;;;;;;46.50;29.85;;;;;;;-145.68;100.00;71887.09;10480250;28;20771;-74
2023/10/20 12:53:43;;;;;;;67.78;29.98;;;;;;;-145.68;100.00;71911.06;10480908;28;20199;-74
2023/10/20 12:58:44;;;;;;;42.70;28.65;;;;;;;-145.68;100.00;71903.06;10478125;28;20683;-74
2023/10/20 13:03:44;;;;;;;47.10;29.15;;;;;;;-145.68;100.00;71917.06;10479493;28;20641;-74
2023/10/20 13:08:45;;;;;;;52.63;30.20;;;;;;;-145.68;100.00;71923.06;10478480;28;20186;-74
2023/10/20 13:13:45;;;;;;;52.60;31.00;;;;;;;-145.68;100.00;71927.06;10478832;28;20273;-73
2023/10/20 13:18:47;;;;;;;57.30;31.37;;;;;;;-145.68;100.00;71939.03;10478561;28;20548;-74
2023/10/20 13:23:47;;;;;;;61.77;33.30;;;;;;;-145.68;100.00;71947.03;10475626;28;20239;-74
2023/10/20 13:28:48;;;;;;;53.73;30.67;;;;;;;-145.68;100.00;71935.03;10476336;28;20204;-75
2023/10/20 13:33:48;;;;;;;54.65;33.72;;;;;;;-145.68;100.00;71915.06;10471764;28;20200;-75
2023/10/20 13:38:48;;;;;;;44.70;27.87;;;;;;;-145.68;100.00;71907.06;10472296;28;20223;-74
2023/10/20 13:43:51;;;;;;;45.03;31.50;;;;;;;-145.68;100.00;71907.06;10470553;28;20223;-74
2023/10/20 13:48:51;;;;;;;48.43;29.97;;;;;;;-145.68;100.00;71915.06;10476700;28;20235;-74
2023/10/20 13:53:52;;;;;;;39.47;26.67;;;;;;;-145.68;100.00;71909.06;10481756;28;20203;-75
2023/10/20 13:58:52;;;;;;;41.50;28.50;;;;;;;-145.68;100.00;71873.09;10483273;28;20219;-75
2023/10/20 14:03:53;;;;;;;41.40;29.77;;;;;;;-145.68;100.00;71855.13;10449035;28;20725;-75
2023/10/20 14:08:54;;;;;;;40.78;28.70;;;;;;;-145.68;100.00;71857.13;10451778;28;20192;-74
2023/10/20 14:13:54;;;;;;;35.07;24.43;;;;;;;-145.68;100.00;71841.13;10450561;28;20218;-75
2023/10/20 14:18:55;;;;;;;36.90;26.00;;;;;;;-145.68;100.00;71839.16;10449050;28;20219;-75
2023/10/20 14:23:55;;;;;;;44.30;28.17;;;;;;;-145.68;100.00;71845.13;10448324;28;20228;-75
2023/10/20 14:28:56;;;;;;;38.38;26.38;;;;;;;-145.68;100.00;71811.16;10445827;28;20277;-74
2023/10/20 14:33:58;;;;;;;42.63;27.50;;;;;;;-145.68;100.00;71783.19;10451623;28;20655;-75
2023/10/20 14:38:58;;;;;;;41.75;27.17;;;;;;;-145.68;100.00;71761.22;10454055;28;20219;-74
2023/10/20 14:43:59;;;;;;;40.63;26.08;;;;;;;-145.68;100.00;71733.25;10454516;28;20199;-74
2023/10/20 14:48:59;;;;;;;40.88;26.27;;;;;;;-145.68;100.00;71725.25;10467319;28;20211;-76
2023/10/20 14:53:59;;;;;;;35.78;26.30;;;;;;;-145.68;100.00;71691.28;10484325;28;20195;-75
2023/10/20 14:59:00;;;;;;;34.22;25.23;;;;;;;-145.68;100.00;71715.28;10484510;28;20243;-75
2023/10/20 15:04:02;;;;;;;34.45;24.98;;;;;;;-145.68;100.00;71701.28;10485725;28;20199;-75
2023/10/20 15:09:04;;;;;;;33.15;25.13;;;;;;;-145.68;100.00;71715.28;10484671;28;20196;-75
2023/10/20 15:14:06;;;;;;;36.13;27.05;;;;;;;-145.68;100.00;71745.25;10480801;28;20196;-73
2023/10/20 15:19:09;;;;;;;43.13;27.77;;;;;;;-145.68;100.00;71793.19;10464278;28;20191;-75
2023/10/20 15:24:10;;;;;;;49.50;27.67;;;;;;;-145.68;100.00;71791.19;10484803;28;20790;-75
2023/10/20 15:29:11;;;;;;;41.53;26.83;;;;;;;-145.68;100.00;71825.16;10481400;28;20609;-75
2023/10/20 15:34:11;;;;;;;47.38;27.13;;;;;;;-145.68;100.00;71849.13;10471171;28;20200;-75
2023/10/20 15:39:12;;;;;;;46.40;26.83;;;;;;;-145.68;100.00;71853.13;10458936;28;20647;-75
2023/10/20 15:44:16;;;;;;;57.20;29.83;;;;;;;-145.68;100.00;71869.13;10489256;28;20191;-75
2023/10/20 15:49:37;;;;;;;65.80;29.45;;;;;;;-145.68;100.00;71893.09;10432390;28;20226;-75
2023/10/20 15:54:37;;;;;;;72.97;33.30;;;;;;;-145.68;100.00;71899.09;10483052;28;20231;-75
2023/10/20 15:59:38;;;;;;;68.05;35.47;;;;;;;-145.68;100.00;71897.09;10483450;28;20187;-75
2023/10/20 16:04:39;;;;;;;61.75;35.42;;;;;;;-145.68;100.00;71923.06;10483250;28;20595;-75
2023/10/20 16:09:39;;;;;;;55.58;31.88;;;;;;;-145.68;100.00;71925.06;10483128;28;20183;-75
2023/10/20 16:14:39;;;;;;;64.63;31.90;;;;;;;-145.68;100.00;71929.06;10475888;28;20211;-75
2023/10/20 16:19:40;;;;;;;62.60;36.00;;;;;;;-145.68;100.00;71967.00;10482827;28;20191;-76
2023/10/20 16:24:41;;;;;;;54.22;31.25;;;;;;;-145.68;100.00;71951.03;10481605;28;20683;-75
2023/10/20 16:29:41;;;;;;;189.45;35.90;;;;;;;-145.68;100.00;71967.00;10482381;28;20189;-75
2023/10/20 16:34:42;;;;;;;70.75;33.67;;;;;;;-145.68;100.00;71953.03;10483617;28;20225;-75
2023/10/20 16:39:42;;;;;;;61.47;31.70;;;;;;;-145.68;100.00;71971.00;10481244;28;20207;-75
2023/10/20 16:44:42;;;;;;;90.53;33.10;;;;;;;-145.68;100.00;71985.00;10481859;28;20571;-74
2023/10/20 16:49:43;;;;;;;61.53;32.88;;;;;;;-145.68;100.00;71987.00;10481474;28;20223;-75
2023/10/20 16:54:47;;;;;;;67.53;31.45;;;;;;;-145.68;100.00;71998.97;10482242;28;20679;-75
2023/10/20 16:59:47;;;;;;;123.00;35.22;;;;;;;-145.68;100.00;72012.97;10481511;28;20229;-75
2023/10/20 17:04:48;;;;;;;137.65;36.25;;;;;;;-145.68;100.00;72036.94;10480713;28;20275;-75
2023/10/20 17:09:48;;;;;;;56.40;31.05;;;;;;;-145.68;100.00;72050.94;10480367;28;20653;-75
2023/10/20 17:14:48;;;;;;;97.95;34.28;;;;;;;-145.68;100.00;72054.94;10478927;28;20224;-75
2023/10/20 17:19:49;;;;;;;83.10;38.50;;;;;;;-145.68;100.00;72064.91;10475309;28;20196;-75
2023/10/20 17:24:49;;;;;;;62.88;34.70;;;;;;;-145.68;100.00;72078.91;10480950;28;20319;-75
2023/10/20 17:29:50;;;;;;;130.25;36.83;;;;;;;-145.68;100.00;72088.91;10480549;28;20199;-75
2023/10/20 17:34:50;;;;;;;64.75;32.80;;;;;;;-145.68;100.00;72088.91;10480565;28;20255;-75
2023/10/20 17:39:52;;;;;;;90.40;36.77;;;;;;;-145.68;100.00;72100.88;10479777;28;20259;-75
2023/10/20 17:44:53;;;;;;;61.20;31.53;;;;;;;-145.68;100.00;72104.88;10480069;28;20279;-75
2023/10/20 17:49:53;;;;;;;75.82;33.60;;;;;;;-145.68;100.00;72120.88;10478509;28;20220;-75
2023/10/20 17:54:54;;;;;;;50.60;29.48;;;;;;;-145.68;100.00;72108.88;10479151;28;20238;-75
2023/10/20 17:59:54;;;;;;;93.00;36.10;;;;;;;-145.68;100.00;72144.84;10478024;28;20206;-74
2023/10/20 18:04:54;;;;;;;120.07;40.50;;;;;;;-145.68;100.00;72186.81;10478500;28;20245;-75
2023/10/20 18:09:55;;;;;;;81.53;38.77;;;;;;;-145.68;100.00;72172.81;10478318;28;20592;-75
2023/10/20 18:14:55;;;;;;;68.37;35.67;;;;;;;-145.68;100.00;72188.81;10477973;28;20227;-75
2023/10/20 18:19:56;;;;;;;75.80;35.70;;;;;;;-145.68;100.00;72194.78;10480789;28;20269;-75
2023/10/20 18:25:12;;;;;;;79.57;34.63;;;;;;;-145.68;100.00;72176.81;10484386;28;20231;-75
2023/10/20 18:30:16;;;;;;;75.93;34.43;;;;;;;-145.68;100.00;72160.81;10475582;28;20197;-75
2023/10/20 18:35:17;;;;;;;53.28;33.15;;;;;;;-145.68;100.00;72172.81;10467760;28;20230;-75
2023/10/20 18:40:17;;;;;;;50.57;33.17;;;;;;;-145.68;100.00;72188.81;10485807;28;20554;-74
2023/10/20 18:45:19;;;;;;;47.50;32.10;;;;;;;-145.68;100.00;72156.84;10485976;28;20191;-75
2023/10/20 18:50:21;;;;;;;43.63;30.93;;;;;;;-145.68;100.00;72120.88;10484521;28;20207;-75
2023/10/20 18:55:21;;;;;;;46.72;30.60;;;;;;;-145.68;100.00;72088.91;10481262;28;20253;-75
2023/10/20 19:00:22;;;;;;;38.53;25.38;;;;;;;-145.68;100.00;72026.97;10482192;28;20202;-75
2023/10/20 19:05:22;;;;;;;35.97;23.45;;;;;;;-145.68;100.00;72006.97;10484095;28;20572;-74
2023/10/20 19:10:23;;;;;;;29.70;19.50;;;;;;;-145.68;100.00;71943.03;10483255;28;20195;-75
2023/10/20 19:15:23;;;;;;;30.90;20.33;;;;;;;-145.68;100.00;71897.09;10484765;28;20686;-74
2023/10/20 19:20:24;;;;;;;36.25;23.65;;;;;;;-145.68;100.00;71907.06;10482722;28;20191;-75
2023/10/20 19:25:24;;;;;;;25.80;17.58;;;;;;;-145.68;100.00;71901.09;10485210;28;20187;-74
2023/10/20 19:30:26;;;;;;;23.67;16.85;;;;;;;-145.68;100.00;71901.09;10482547;28;20191;-75
2023/10/20 19:35:26;;;;;;;18.95;14.50;;;;;;;-145.68;100.00;71893.09;10482889;28;20211;-74
2023/10/20 19:40:27;;;;;;;20.58;12.38;;;;;;;-145.68;100.00;71885.09;10478136;28;20203;-74
2023/10/20 19:45:27;;;;;;;15.15;10.75;;;;;;;-145.68;100.00;71849.13;10483726;28;20191;-74
2023/10/20 19:50:27;;;;;;;13.85;10.32;;;;;;;-145.68;100.00;71813.16;10483453;28;20234;-74
2023/10/20 19:55:30;;;;;;;15.27;9.68;;;;;;;-145.68;100.00;71775.22;10482616;28;20315;-74
2023/10/20 20:00:32;;;;;;;11.70;9.43;;;;;;;-145.68;100.00;71757.22;10483455;28;20278;-74
2023/10/20 20:05:32;;;;;;;14.13;9.57;;;;;;;-145.68;100.00;71771.22;10483127;28;20274;-74
2023/10/20 20:10:33;;;;;;;10.82;8.77;;;;;;;-145.68;100.00;71789.19;10482851;28;20242;-74
2023/10/20 20:15:33;;;;;;;11.23;8.70;;;;;;;-145.68;100.00;71763.22;10480275;28;20226;-73
2023/10/20 20:20:33;;;;;;;10.15;7.97;;;;;;;-145.68;100.00;71731.25;10481849;28;20227;-74
2023/10/20 20:25:34;;;;;;;11.65;8.63;;;;;;;-145.68;100.00;71751.22;10482437;28;20331;-74
2023/10/20 20:30:34;;;;;;;11.48;8.40;;;;;;;-145.68;100.00;71777.22;10481358;28;20199;-74
2023/10/20 20:35:34;;;;;;;10.38;8.15;;;;;;;-145.68;100.00;71805.19;10482355;28;20222;-74
2023/10/20 20:40:36;;;;;;;11.68;8.95;;;;;;;-145.68;100.00;71827.16;10478271;28;20206;-75
2023/10/20 20:45:36;;;;;;;11.63;9.25;;;;;;;-145.68;100.00;71843.13;10481483;28;20662;-75
2023/10/20 20:50:40;;;;;;;13.48;9.65;;;;;;;-145.68;100.00;71855.13;10482213;28;20211;-75
2023/10/20 20:55:40;;;;;;;11.95;9.52;;;;;;;-145.68;100.00;71851.13;10486857;28;20268;-75
2023/10/20 21:00:41;;;;;;;9.93;7.72;;;;;;;-145.68;100.00;71845.13;10480360;28;20215;-75
2023/10/20 21:05:42;;;;;;;12.32;9.48;;;;;;;-145.68;100.00;71849.13;10481265;28;20187;-75
2023/10/20 21:10:43;;;;;;;12.73;8.52;;;;;;;-145.68;100.00;71851.13;10480685;28;20207;-75
2023/10/20 21:15:43;;;;;;;9.73;7.88;;;;;;;-145.68;100.00;71857.13;10480977;28;20218;-75
2023/10/20 21:20:44;;;;;;;12.18;8.05;;;;;;;-145.68;100.00;71873.09;10480484;28;20231;-75
2023/10/20 21:25:44;;;;;;;10.23;7.45;;;;;;;-145.68;100.00;71873.09;10479142;28;20229;-75
2023/10/20 21:30:45;;;;;;;9.07;7.40;;;;;;;-145.68;100.00;71863.13;10480345;28;20198;-74
2023/10/20 21:35:45;;;;;;;9.82;7.10;;;;;;;-145.68;100.00;71883.09;10480336;28;20275;-74
2023/10/20 21:40:45;;;;;;;10.35;7.97;;;;;;;-145.68;100.00;71881.09;10480677;28;20225;-74
2023/10/20 21:46:27;;;;;;;12.27;7.75;;;;;;;-145.68;100.00;71879.09;10481116;28;20187;-75
2023/10/20 21:51:28;;;;;;;9.25;6.65;;;;;;;-145.68;100.00;71865.13;10433022;28;20222;-75
2023/10/20 21:56:28;;;;;;;8.63;5.90;;;;;;;-145.68;100.00;71865.13;10479570;28;20726;-75
2023/10/20 22:01:29;;;;;;;6.25;5.57;;;;;;;-145.68;100.00;71849.13;10479409;28;20289;-75
2023/10/20 22:06:29;;;;;;;8.85;6.20;;;;;;;-145.68;100.00;71857.13;10478157;28;20194;-74
2023/10/20 22:11:30;;;;;;;6.30;5.68;;;;;;;-145.68;100.00;71859.13;10479926;28;20760;-74
2023/10/20 22:16:31;;;;;;;6.65;5.85;;;;;;;-145.68;100.00;71869.13;10479372;28;20722;-75
2023/10/20 22:21:31;;;;;;;6.28;5.70;;;;;;;-145.68;100.00;71857.13;10478605;28;20682;-75